Llano, TX

4:47 PM CDT on September 22, 2014 (GMT -0500)
Llano | Change Station
CLOSE
Current Station
Airport
Location: Llano,
Elevation: 1102 ft
Nearby Weather Stations

Elev 1102 ft 30.79 °N, 98.66 °W | Updated 12 minutes ago

Partly Cloudy
Partly Cloudy
90 °F
Feels Like 91 °F
N
6
Wind Variable Wind from East

Today
High -- | Low -- °F
--% Chance of Precip.
Yesterday
High -- | Low -- °F
Precip. -- in
7:22 AM 7:30 PM
Waning Crescent, 2% visible
Pressure 30.11 in
Visibility 10.0 miles
Clouds Clear
Heat Index 91 °F
Dew Point 64 °F
Humidity 43%
Rainfall 0.00 in
Snow Depth Not available.
UV 4 out of 12
Pollen 10.50 out of 12
Air Quality Not available.
Flu Activity Not available.
METAR KAQO 222135Z AUTO 09005KT 10SM CLR 32/18 A3011 RMK AO2

More Conditions Fewer Conditions

Pressure 30.11 in
Visibility 10.0 miles
Clouds Clear
Heat Index 91 °F
Dew Point 64 °F
Humidity 43%
Rainfall 0.00 in
Snow Depth Not available.
UV 4 out of 12
Pollen 10.50 out of 12
Air Quality Not available.
Flu Activity Not available.
METAR KAQO 222135Z AUTO 09005KT 10SM CLR 32/18 A3011 RMK AO2

More Conditions Fewer Conditions

10-Day Weather Forecast

Almanac

Astronomy

Sep. 22, 2014 Rise Set
Actual Time 7:22 AM CDT 7:30 PM CDT
Civil Twilight 6:58 AM CDT 7:54 PM CDT
Nautical Twilight 6:30 AM CDT 8:22 PM CDT
Astronomical Twilight 6:02 AM CDT 8:51 PM CDT
Moon 5:57 AM CDT 6:36 PM CDT
Length of Visible Light 12h 56m
Length of Day
12h 08m
Tomorrow will be 1m 50s shorter.
Waning Crescent, 2% of the Moon is Illuminated
Today
Waning Crescent
Sep 24
New
Oct 1
First Quarter
Oct 8
Full
Oct 15
Last Quarter

Today's Extremes

State Highs State Lows

Community

WunderPhotos

Upload Photos

1,755,537 photos uploaded!

WunderBlogs® & News

Nearby

Snow Depth

Station Depth Elevation
No new snow has been reported.

Earthquake Activity

City Distance Mag. Time & Date
No recent earthquake activity has been reported nearby.
Minimum magnitude displayed is 2.5.

Coastal Water Temperatures

Place Temperature
No Stations Reporting

Nearby Weather Stations